createdAt,value
2023-03-21T00:00:42.852Z,8.59
2023-03-21T00:03:10.100Z,8.51
2023-03-21T00:05:51.907Z,8.45
2023-03-21T00:08:20.741Z,8.37
2023-03-21T00:10:47.985Z,8.30
2023-03-21T00:13:16.087Z,8.25
2023-03-21T00:18:47.429Z,8.15
2023-03-21T00:24:08.181Z,8.04
2023-03-21T00:26:35.769Z,8.02
2023-03-21T00:29:02.722Z,8.02
2023-03-21T00:31:29.613Z,8.04
2023-03-21T00:33:57.045Z,8.05
2023-03-21T00:36:26.098Z,8.05
2023-03-21T00:38:53.872Z,8.03
2023-03-21T00:41:35.011Z,8.02
2023-03-21T00:44:07.815Z,8.00
2023-03-21T00:46:45.627Z,7.98
2023-03-21T00:49:14.241Z,7.98
2023-03-21T00:51:41.131Z,7.98
2023-03-21T00:54:08.049Z,7.97
2023-03-21T00:56:34.953Z,7.96
2023-03-21T00:59:01.816Z,7.96
2023-03-21T01:01:32.352Z,7.95
2023-03-21T01:04:04.828Z,7.95
2023-03-21T01:06:39.607Z,7.95
2023-03-21T01:09:11.806Z,7.95
2023-03-21T01:11:38.715Z,7.96
2023-03-21T01:14:21.495Z,7.96
2023-03-21T01:16:51.343Z,7.95
2023-03-21T01:19:27.457Z,7.96
2023-03-21T01:21:58.080Z,7.97
2023-03-21T01:24:25.896Z,7.95
2023-03-21T01:26:52.776Z,7.95
2023-03-21T01:29:20.051Z,7.96
2023-03-21T01:31:47.325Z,7.97
2023-03-21T01:34:14.347Z,7.98
2023-03-21T01:36:41.494Z,8.00
2023-03-21T01:39:13.263Z,7.99
2023-03-21T01:41:44.306Z,7.97
2023-03-21T01:44:29.808Z,7.96
2023-03-21T01:47:11.023Z,7.94
2023-03-21T01:49:49.942Z,7.92
2023-03-21T01:52:52.183Z,7.91
2023-03-21T01:55:26.621Z,7.90
2023-03-21T01:58:06.979Z,7.89
2023-03-21T02:00:57.804Z,7.89
2023-03-21T02:03:38.454Z,7.90
2023-03-21T02:06:40.972Z,7.87
2023-03-21T02:09:19.822Z,7.86
2023-03-21T02:11:47.312Z,7.84
2023-03-21T02:14:23.394Z,7.83
2023-03-21T02:17:19.671Z,7.81
2023-03-21T02:20:09.054Z,7.78
2023-03-21T02:22:54.205Z,7.75
2023-03-21T02:25:33.328Z,7.74
2023-03-21T02:28:09.870Z,7.75
2023-03-21T02:31:04.791Z,7.77
2023-03-21T02:33:57.567Z,7.79
2023-03-21T02:36:38.237Z,7.87
2023-03-21T02:39:31.918Z,7.96
2023-03-21T02:42:11.454Z,8.00
2023-03-21T02:44:50.520Z,8.01
2023-03-21T02:47:38.507Z,7.98
2023-03-21T02:50:22.019Z,7.94
2023-03-21T02:52:50.321Z,7.92
2023-03-21T02:55:23.041Z,7.90
2023-03-21T02:57:57.036Z,7.91
2023-03-21T03:00:29.788Z,7.89
2023-03-21T03:03:08.730Z,7.89
2023-03-21T03:05:48.247Z,7.87
2023-03-21T03:08:37.581Z,7.85
2023-03-21T03:11:48.601Z,7.85
2023-03-21T03:14:49.579Z,7.83
2023-03-21T03:17:37.479Z,7.82
2023-03-21T03:20:24.868Z,7.81
2023-03-21T03:23:12.169Z,7.81
2023-03-21T03:25:52.641Z,7.81
2023-03-21T03:28:26.822Z,7.81
2023-03-21T03:31:08.090Z,7.84
2023-03-21T03:33:48.218Z,7.85
2023-03-21T03:36:33.622Z,7.86
2023-03-21T03:39:10.480Z,7.86
2023-03-21T03:42:21.698Z,7.87
2023-03-21T03:44:41.649Z,7.85
2023-03-21T03:47:17.526Z,7.91
2023-03-21T03:49:55.261Z,7.96
2023-03-21T03:52:29.812Z,8.04
2023-03-21T03:55:05.218Z,8.09
2023-03-21T03:57:34.738Z,8.16
2023-03-21T04:00:01.642Z,8.15
2023-03-21T04:02:47.176Z,8.10
2023-03-21T04:05:21.478Z,8.04
2023-03-21T04:07:51.204Z,8.00
2023-03-21T04:10:22.188Z,7.97
2023-03-21T04:12:49.942Z,7.95
2023-03-21T04:15:39.705Z,7.91
2023-03-21T04:18:11.543Z,7.87
2023-03-21T04:20:38.495Z,7.84
2023-03-21T04:23:06.745Z,7.82
2023-03-21T04:25:44.619Z,7.81
2023-03-21T04:28:17.843Z,7.79
2023-03-21T04:31:02.367Z,7.79
2023-03-21T04:33:38.679Z,7.79
2023-03-21T04:36:09.601Z,7.78
2023-03-21T04:38:37.337Z,7.75
2023-03-21T04:41:04.692Z,7.74
2023-03-21T04:43:32.246Z,7.74
2023-03-21T04:45:59.345Z,7.74
2023-03-21T04:48:27.703Z,7.72
2023-03-21T04:50:55.105Z,7.70
2023-03-21T04:53:22.035Z,7.69
2023-03-21T04:55:52.433Z,7.67
2023-03-21T04:58:20.616Z,7.68
2023-03-21T05:00:48.046Z,7.67
2023-03-21T05:03:19.637Z,7.70
2023-03-21T05:05:48.287Z,7.72
2023-03-21T05:08:16.114Z,7.72
2023-03-21T05:10:43.610Z,7.73
2023-03-21T05:13:10.996Z,7.74
2023-03-21T05:15:38.347Z,7.76
2023-03-21T05:18:10.451Z,7.77
2023-03-21T05:20:43.130Z,7.78
2023-03-21T05:23:11.848Z,7.79
2023-03-21T05:25:40.347Z,7.81
2023-03-21T05:28:20.394Z,7.86
2023-03-21T05:30:48.308Z,7.89
2023-03-21T05:33:15.461Z,7.92
2023-03-21T05:35:42.617Z,7.95
2023-03-21T05:38:10.577Z,8.02
2023-03-21T05:40:47.888Z,8.13
2023-03-21T05:43:14.802Z,8.17
2023-03-21T05:45:42.007Z,8.23
2023-03-21T05:48:09.489Z,8.27
2023-03-21T05:50:47.943Z,8.38
2023-03-21T05:53:18.020Z,8.46
2023-03-21T05:55:44.899Z,8.57
2023-03-21T05:58:17.982Z,8.65
2023-03-21T06:00:47.727Z,8.82
2023-03-21T06:03:19.959Z,8.87
2023-03-21T06:06:08.839Z,8.88
2023-03-21T06:08:39.111Z,8.92
2023-03-21T06:11:13.340Z,9.10
2023-03-21T06:13:40.419Z,9.18
2023-03-21T06:16:08.480Z,9.19
2023-03-21T06:18:35.936Z,9.21
2023-03-21T06:21:15.115Z,9.20
2023-03-21T06:23:42.093Z,9.17
2023-03-21T06:26:09.289Z,9.13
2023-03-21T06:28:36.574Z,9.13
2023-03-21T06:31:04.073Z,9.11
2023-03-21T06:33:33.386Z,9.01
2023-03-21T06:36:00.463Z,8.94
2023-03-21T06:38:28.511Z,8.87
2023-03-21T06:40:55.366Z,8.82
2023-03-21T06:43:23.973Z,8.77
2023-03-21T06:45:51.125Z,8.74
2023-03-21T06:48:18.204Z,8.70
2023-03-21T06:50:50.446Z,8.66
2023-03-21T06:53:20.854Z,8.62
2023-03-21T06:56:12.914Z,8.60
2023-03-21T06:58:40.558Z,8.58
2023-03-21T07:01:09.547Z,8.58
2023-03-21T07:03:43.241Z,8.63
2023-03-21T07:06:14.558Z,8.67
2023-03-21T07:08:41.780Z,8.67
2023-03-21T07:11:09.906Z,8.66
2023-03-21T07:13:36.848Z,8.68
2023-03-21T07:16:04.988Z,8.70
2023-03-21T07:18:32.435Z,8.72
2023-03-21T07:20:59.407Z,8.74
2023-03-21T07:23:27.160Z,8.78
2023-03-21T07:25:54.660Z,8.79
2023-03-21T07:28:22.972Z,8.81
2023-03-21T07:31:01.138Z,8.81
2023-03-21T07:33:28.614Z,8.81
2023-03-21T07:35:58.819Z,8.81
2023-03-21T07:38:26.772Z,8.80
2023-03-21T07:40:54.210Z,8.91
2023-03-21T07:43:21.812Z,9.17
2023-03-21T07:45:51.947Z,9.37
2023-03-21T07:48:19.738Z,9.49
2023-03-21T07:50:46.718Z,9.47
2023-03-21T07:53:13.645Z,9.45
2023-03-21T07:55:40.803Z,9.47
2023-03-21T07:58:07.806Z,9.43
2023-03-21T08:00:34.765Z,9.44
2023-03-21T08:03:02.037Z,9.45
2023-03-21T08:05:34.072Z,9.46
2023-03-21T08:08:01.441Z,9.45
2023-03-21T08:10:28.791Z,9.46
2023-03-21T08:12:55.936Z,9.48
2023-03-21T08:15:23.226Z,9.49
2023-03-21T08:17:50.465Z,9.57
2023-03-21T08:20:21.388Z,9.68
2023-03-21T08:22:49.592Z,9.76
2023-03-21T08:25:18.584Z,9.86
2023-03-21T08:27:47.053Z,10.09
2023-03-21T08:30:17.938Z,10.34
2023-03-21T08:32:45.100Z,10.62
2023-03-21T08:35:14.195Z,10.87
2023-03-21T08:37:41.464Z,11.10
2023-03-21T08:40:15.860Z,11.38
2023-03-21T08:42:43.731Z,11.59
2023-03-21T08:45:12.080Z,11.67
2023-03-21T08:47:39.554Z,11.66
2023-03-21T08:50:09.127Z,11.60
2023-03-21T08:52:37.341Z,11.46
2023-03-21T08:55:05.068Z,11.30
2023-03-21T08:57:32.000Z,11.13
2023-03-21T08:59:59.050Z,11.09
2023-03-21T09:02:25.951Z,11.09
2023-03-21T09:04:59.280Z,11.15
2023-03-21T09:07:28.060Z,11.24
2023-03-21T09:10:18.626Z,11.39
2023-03-21T09:12:41.813Z,11.71
2023-03-21T09:15:12.201Z,12.14
2023-03-21T09:17:42.595Z,12.60
2023-03-21T09:20:18.928Z,12.99
2023-03-21T09:22:52.138Z,13.24
2023-03-21T09:25:20.807Z,13.24
2023-03-21T09:27:48.223Z,13.09
2023-03-21T09:30:17.575Z,12.99
2023-03-21T09:32:49.621Z,12.86
2023-03-21T09:35:20.843Z,12.71
2023-03-21T09:37:49.180Z,12.61
2023-03-21T09:40:40.326Z,12.62
2023-03-21T09:43:35.731Z,12.68
2023-03-21T09:46:12.489Z,12.71
2023-03-21T09:49:02.169Z,12.61
2023-03-21T09:51:33.656Z,12.41
2023-03-21T09:54:07.635Z,12.13
2023-03-21T09:56:39.255Z,11.86
2023-03-21T09:59:09.258Z,11.66
2023-03-21T10:01:42.118Z,11.55
2023-03-21T10:04:14.080Z,11.47
2023-03-21T10:06:42.976Z,11.38
2023-03-21T10:09:21.654Z,11.33
2023-03-21T10:11:54.348Z,11.24
2023-03-21T10:14:38.798Z,11.18
2023-03-21T10:17:34.305Z,11.22
2023-03-21T10:20:24.614Z,11.17
2023-03-21T10:22:55.343Z,11.15
2023-03-21T10:25:31.747Z,11.11
2023-03-21T10:28:01.198Z,11.10
2023-03-21T10:30:42.386Z,11.08
2023-03-21T10:33:15.608Z,10.98
2023-03-21T10:35:46.817Z,10.93
2023-03-21T10:38:18.950Z,10.95
2023-03-21T10:40:46.706Z,11.00
2023-03-21T10:43:37.517Z,11.07
2023-03-21T10:46:13.874Z,11.15
2023-03-21T10:48:47.048Z,11.15
2023-03-21T10:51:22.196Z,11.16
2023-03-21T10:53:57.112Z,11.16
2023-03-21T10:56:28.381Z,11.15
2023-03-21T10:59:01.178Z,11.16
2023-03-21T11:01:41.498Z,11.11
2023-03-21T11:04:22.646Z,11.03
2023-03-21T11:07:01.463Z,10.88
2023-03-21T11:09:55.891Z,10.73
2023-03-21T11:12:37.382Z,10.61
2023-03-21T11:15:27.588Z,10.50
2023-03-21T11:17:54.716Z,10.40
2023-03-21T11:20:22.246Z,10.32
2023-03-21T11:22:50.227Z,10.25
2023-03-21T11:25:25.649Z,10.19
2023-03-21T11:27:55.084Z,10.15
2023-03-21T11:30:28.067Z,10.14
2023-03-21T11:33:02.030Z,10.19
2023-03-21T11:35:34.560Z,10.22
2023-03-21T11:38:01.701Z,10.28
2023-03-21T11:40:34.033Z,10.40
2023-03-21T11:43:02.060Z,10.54
2023-03-21T11:45:32.024Z,10.67
2023-03-21T11:48:00.267Z,10.86
2023-03-21T11:50:35.449Z,11.04
2023-03-21T11:53:28.195Z,11.35
2023-03-21T11:56:16.795Z,11.79
2023-03-21T12:01:10.425Z,12.81
2023-03-21T12:03:48.627Z,13.06
2023-03-21T12:06:37.739Z,13.24
2023-03-21T12:09:13.296Z,13.42
2023-03-21T12:12:18.618Z,13.68
2023-03-21T12:15:26.043Z,14.08
2023-03-21T12:17:55.801Z,14.42
2023-03-21T12:20:31.660Z,14.50
2023-03-21T12:23:21.695Z,14.51
2023-03-21T12:25:48.613Z,14.51
2023-03-21T12:28:32.438Z,14.42
2023-03-21T12:31:20.181Z,14.27
2023-03-21T12:33:56.489Z,14.16
2023-03-21T12:36:48.302Z,14.08
2023-03-21T12:39:39.707Z,13.96
2023-03-21T12:42:42.004Z,13.73
2023-03-21T12:45:16.192Z,13.57
2023-03-21T12:47:49.054Z,13.48
2023-03-21T12:50:23.593Z,13.47
2023-03-21T12:52:58.716Z,13.54
2023-03-21T12:55:31.005Z,13.51
2023-03-21T12:58:10.532Z,13.37
2023-03-21T13:00:53.668Z,13.27
2023-03-21T13:03:38.946Z,13.30
2023-03-21T13:06:09.663Z,13.30
2023-03-21T13:08:37.684Z,13.31
2023-03-21T13:11:07.273Z,13.34
2023-03-21T13:13:47.225Z,13.37
2023-03-21T13:16:23.795Z,13.45
2023-03-21T13:19:10.948Z,13.50
2023-03-21T13:21:51.349Z,13.59
2023-03-21T13:24:21.083Z,13.60
2023-03-21T13:27:26.408Z,13.71
2023-03-21T13:30:05.398Z,13.90
2023-03-21T13:32:37.477Z,14.00
2023-03-21T13:35:13.864Z,14.10
2023-03-21T13:37:49.012Z,14.21
2023-03-21T13:40:29.358Z,14.16
2023-03-21T13:42:59.985Z,14.07
2023-03-21T13:45:52.763Z,14.00
2023-03-21T13:48:29.588Z,13.83
2023-03-21T13:51:05.275Z,13.68
2023-03-21T13:53:37.409Z,13.52
2023-03-21T13:56:12.053Z,13.34
2023-03-21T13:58:52.586Z,13.18
2023-03-21T14:01:26.468Z,13.04
2023-03-21T14:03:59.833Z,12.93
2023-03-21T14:06:39.601Z,12.92
2023-03-21T14:09:07.878Z,12.92
2023-03-21T14:11:38.308Z,12.89
2023-03-21T14:14:06.268Z,12.84
2023-03-21T14:16:34.029Z,12.65
2023-03-21T14:19:04.397Z,12.43
2023-03-21T14:21:37.520Z,12.22
2023-03-21T14:24:12.988Z,12.06
2023-03-21T14:26:59.176Z,11.93
2023-03-21T14:29:35.901Z,11.85
2023-03-21T14:32:03.759Z,11.77
2023-03-21T14:34:35.224Z,11.65
2023-03-21T14:37:02.538Z,11.56
2023-03-21T14:39:32.601Z,11.50
2023-03-21T14:42:07.018Z,11.44
2023-03-21T14:44:56.800Z,11.32
2023-03-21T14:47:26.174Z,11.38
2023-03-21T14:49:54.818Z,11.65
2023-03-21T14:52:36.570Z,12.06
2023-03-21T14:55:17.452Z,12.55
2023-03-21T14:57:44.591Z,12.94
2023-03-21T15:00:43.228Z,13.23
2023-03-21T15:03:13.668Z,13.43
2023-03-21T15:05:42.837Z,13.50
2023-03-21T15:08:17.177Z,13.60
2023-03-21T15:11:08.656Z,13.65
2023-03-21T15:13:45.609Z,13.64
2023-03-21T15:16:15.114Z,13.60
2023-03-21T15:18:44.808Z,13.52
2023-03-21T15:21:27.855Z,13.40
2023-03-21T15:23:59.538Z,13.34
2023-03-21T15:26:27.698Z,13.29
2023-03-21T15:29:00.563Z,13.22
2023-03-21T15:31:35.689Z,13.11
2023-03-21T15:34:04.226Z,12.98
2023-03-21T15:36:38.093Z,12.87
2023-03-21T15:39:08.855Z,12.80
2023-03-21T15:41:35.856Z,12.74
2023-03-21T15:44:06.647Z,12.68
2023-03-21T15:46:41.631Z,12.53
2023-03-21T15:49:29.721Z,12.30
2023-03-21T15:52:15.099Z,12.09
2023-03-21T15:54:48.169Z,11.89
2023-03-21T15:57:30.140Z,11.76
2023-03-21T16:00:07.417Z,11.60
2023-03-21T16:02:42.062Z,11.39
2023-03-21T16:05:29.210Z,11.20
2023-03-21T16:08:27.547Z,11.01
2023-03-21T16:10:54.780Z,10.85
2023-03-21T16:13:21.848Z,10.72
2023-03-21T16:15:48.752Z,10.61
2023-03-21T16:18:18.239Z,10.52
2023-03-21T16:20:47.170Z,10.43
2023-03-21T16:23:16.034Z,10.31
2023-03-21T16:25:44.187Z,10.21
2023-03-21T16:28:18.010Z,10.15
2023-03-21T16:30:46.060Z,10.11
2023-03-21T16:33:13.896Z,10.09
2023-03-21T16:35:41.482Z,10.11
2023-03-21T16:38:12.556Z,10.15
2023-03-21T16:40:41.931Z,10.19
2023-03-21T16:43:10.483Z,10.23
2023-03-21T16:45:38.591Z,10.27
2023-03-21T16:48:06.255Z,10.28
2023-03-21T16:50:37.299Z,10.28
2023-03-21T16:53:04.519Z,10.28
2023-03-21T16:55:33.793Z,10.25
2023-03-21T16:58:01.542Z,10.21
2023-03-21T17:00:31.036Z,10.12
2023-03-21T17:03:01.861Z,10.02
2023-03-21T17:05:33.244Z,9.88
2023-03-21T17:08:04.765Z,9.73
2023-03-21T17:10:32.980Z,9.59
2023-03-21T17:13:00.659Z,9.48
2023-03-21T17:15:27.944Z,9.35
2023-03-21T17:17:55.993Z,9.16
2023-03-21T17:20:26.805Z,8.96
2023-03-21T17:22:53.796Z,8.73
2023-03-21T17:25:20.987Z,8.56
2023-03-21T17:27:49.461Z,8.47
2023-03-21T17:30:29.201Z,8.40
2023-03-21T17:32:56.210Z,8.29
2023-03-21T17:35:24.598Z,8.19
2023-03-21T17:37:52.441Z,8.10
2023-03-21T17:40:28.544Z,8.00
2023-03-21T17:42:58.254Z,7.91
2023-03-21T17:45:25.842Z,7.83
2023-03-21T17:47:55.564Z,7.74
2023-03-21T17:50:27.388Z,7.64
2023-03-21T17:52:56.747Z,7.57
2023-03-21T17:55:24.518Z,7.50
2023-03-21T17:57:52.281Z,7.40
2023-03-21T18:00:23.372Z,7.28
2023-03-21T18:02:51.843Z,7.17
2023-03-21T18:05:22.092Z,7.10
2023-03-21T18:08:09.808Z,7.01
2023-03-21T18:10:38.613Z,6.85
2023-03-21T18:13:06.334Z,6.67
2023-03-21T18:15:33.821Z,6.50
2023-03-21T18:18:01.739Z,6.37
2023-03-21T18:20:50.391Z,6.31
2023-03-21T18:23:19.087Z,6.26
2023-03-21T18:25:46.570Z,6.22
2023-03-21T18:28:17.622Z,6.15
2023-03-21T18:33:37.437Z,5.98
2023-03-21T18:36:07.473Z,5.92
2023-03-21T18:38:36.673Z,5.87
2023-03-21T18:41:04.518Z,5.79
2023-03-21T18:46:19.131Z,5.67
2023-03-21T18:48:46.686Z,5.62
2023-03-21T18:51:14.205Z,5.54
2023-03-21T18:53:41.839Z,5.46
2023-03-21T18:56:10.604Z,5.38
2023-03-21T18:58:38.784Z,5.25
2023-03-21T19:01:06.599Z,5.07
2023-03-21T19:03:37.116Z,4.91
2023-03-21T19:06:06.638Z,4.76
2023-03-21T19:08:38.815Z,4.60
2023-03-21T19:11:07.155Z,4.47
2023-03-21T19:13:34.816Z,4.35
2023-03-21T19:16:03.184Z,4.30
2023-03-21T19:21:21.909Z,4.19
2023-03-21T19:26:36.553Z,4.23
2023-03-21T19:29:04.207Z,4.22
2023-03-21T19:31:31.644Z,4.17
2023-03-21T19:33:59.704Z,4.10
2023-03-21T19:36:27.430Z,4.02
2023-03-21T19:38:54.509Z,3.97
2023-03-21T19:41:21.533Z,3.93
2023-03-21T19:43:54.842Z,3.89
2023-03-21T19:46:25.661Z,3.84
2023-03-21T19:48:56.560Z,3.81
2023-03-21T19:51:29.818Z,3.78
2023-03-21T19:54:04.396Z,3.67
2023-03-21T19:56:32.118Z,3.56
2023-03-21T19:59:01.853Z,3.43
2023-03-21T20:01:29.143Z,3.34
2023-03-21T20:03:57.747Z,3.29
2023-03-21T20:06:25.533Z,3.25
2023-03-21T20:09:34.145Z,3.21
2023-03-21T20:11:41.143Z,3.10
2023-03-21T20:14:08.295Z,3.00
2023-03-21T20:16:37.206Z,2.96
2023-03-21T20:19:08.511Z,2.95
2023-03-21T20:21:46.534Z,2.94
2023-03-21T20:24:17.041Z,2.93
2023-03-21T20:26:46.231Z,2.91
2023-03-21T20:30:07.543Z,2.85
2023-03-21T20:32:00.951Z,2.81
2023-03-21T20:34:30.268Z,2.79
2023-03-21T20:36:58.977Z,2.76
2023-03-21T20:39:28.641Z,2.73
2023-03-21T20:41:59.405Z,2.68
2023-03-21T20:44:51.835Z,2.59
2023-03-21T20:47:14.938Z,2.48
2023-03-21T20:49:42.285Z,2.41
2023-03-21T20:55:00.008Z,2.38
2023-03-21T20:57:28.170Z,2.38
2023-03-21T20:59:55.621Z,2.37
2023-03-21T21:02:23.935Z,2.36
2023-03-21T21:05:23.690Z,2.34
2023-03-21T21:07:43.140Z,2.30
2023-03-21T21:10:14.375Z,2.22
2023-03-21T21:12:45.422Z,2.11
2023-03-21T21:15:15.178Z,2.00
2023-03-21T21:20:29.939Z,1.90
2023-03-21T21:23:00.004Z,1.89
2023-03-21T21:25:29.200Z,1.87
2023-03-21T21:27:56.532Z,1.82
2023-03-21T21:30:26.170Z,1.80
2023-03-21T21:32:54.441Z,1.77
2023-03-21T21:35:22.962Z,1.74
2023-03-21T21:37:51.792Z,1.71
2023-03-21T21:40:20.750Z,1.68
2023-03-21T21:42:51.044Z,1.66
2023-03-21T21:45:20.064Z,1.64
2023-03-21T21:47:47.710Z,1.62
2023-03-21T21:50:14.681Z,1.59
2023-03-21T21:52:54.857Z,1.56
2023-03-21T21:55:22.759Z,1.51
2023-03-21T21:57:53.727Z,1.47
2023-03-21T22:00:21.125Z,1.45
2023-03-21T22:02:48.449Z,1.44
2023-03-21T22:05:17.309Z,1.44
2023-03-21T22:07:47.310Z,1.43
2023-03-21T22:10:16.736Z,1.41
2023-03-21T22:12:44.051Z,1.38
2023-03-21T22:15:13.773Z,1.32
2023-03-21T22:17:42.516Z,1.29
2023-03-21T22:20:12.688Z,1.27
2023-03-21T22:22:40.747Z,1.22
2023-03-21T22:25:10.862Z,1.19
2023-03-21T22:27:38.878Z,1.18
2023-03-21T22:30:08.789Z,1.15
2023-03-21T22:32:36.605Z,1.11
2023-03-21T22:35:05.776Z,1.04
2023-03-21T22:37:35.798Z,1.02
2023-03-21T22:40:06.115Z,1.01
2023-03-21T22:42:33.346Z,0.98
2023-03-21T22:45:02.138Z,0.97
2023-03-21T22:47:32.071Z,0.95
2023-03-21T22:50:01.289Z,0.93
2023-03-21T22:52:28.393Z,0.90
2023-03-21T22:54:55.388Z,0.88
2023-03-21T22:57:22.816Z,0.86
2023-03-21T22:59:50.043Z,0.83
2023-03-21T23:02:18.537Z,0.80
2023-03-21T23:04:45.652Z,0.79
2023-03-21T23:07:12.666Z,0.76
2023-03-21T23:09:39.561Z,0.73
2023-03-21T23:12:06.570Z,0.72
2023-03-21T23:14:33.519Z,0.72
2023-03-21T23:17:02.819Z,0.74
2023-03-21T23:19:30.855Z,0.74
2023-03-21T23:21:57.948Z,0.73
2023-03-21T23:24:25.722Z,0.72
2023-03-21T23:26:53.092Z,0.70
2023-03-21T23:29:20.213Z,0.66
2023-03-21T23:31:47.520Z,0.61
2023-03-21T23:34:14.756Z,0.58
2023-03-21T23:36:42.034Z,0.55
2023-03-21T23:39:09.883Z,0.54
2023-03-21T23:41:36.804Z,0.55
2023-03-21T23:44:04.626Z,0.54
2023-03-21T23:46:32.026Z,0.53
2023-03-21T23:48:59.261Z,0.54
2023-03-21T23:51:26.291Z,0.54
2023-03-21T23:53:54.225Z,0.53
2023-03-21T23:56:23.835Z,0.52
2023-03-21T23:58:51.555Z,0.52
